PBD483 UWKD-UUEE
Flight info
| Callsign | PBD483 |
|---|---|
| Flight time | N/A |
| Altitude | 34000 |
| Route | APTAR1G APTAR L158 DIMGI DIMGI3E |
| Aircraft | B738/M-SDE2E3FGHIRWXY/LB1 |
Departure
| Time | 2026-04-27 18:52 |
|---|---|
| Airport | Kazan International Airport (UWKD) |
Arrival
| Time | N/A |
|---|---|
| Airport | Sheremetyevo International Airport (UUEE) |
| Time | Latitude | Longitude | Altitude | Speed | Heading |
|---|---|---|---|---|---|
| 2026-04-27 18:23 | 55.60717 | 49.29961 | 406 ft | 0 kts | 34° |
| 2026-04-27 18:39 | 55.60709 | 49.29952 | 406 ft | 2 kts | 32° |
| 2026-04-27 18:40 | 55.60695 | 49.29937 | 403 ft | 2 kts | 27° |
| 2026-04-27 18:40 | 55.60680 | 49.29925 | 401 ft | 2 kts | 18° |
| 2026-04-27 18:40 | 55.60664 | 49.29919 | 405 ft | 2 kts | 1° |
| 2026-04-27 18:40 | 55.60647 | 49.29923 | 405 ft | 2 kts | 332° |
| 2026-04-27 18:41 | 55.60635 | 49.29940 | 401 ft | 2 kts | 308° |
| 2026-04-27 18:41 | 55.60631 | 49.29949 | 400 ft | 0 kts | 305° |
| 2026-04-27 18:43 | 55.60640 | 49.29929 | 404 ft | 5 kts | 309° |
| 2026-04-27 18:43 | 55.60674 | 49.29845 | 406 ft | 11 kts | 306° |
| 2026-04-27 18:43 | 55.60721 | 49.29723 | 404 ft | 13 kts | 302° |
| 2026-04-27 18:43 | 55.60774 | 49.29581 | 406 ft | 9 kts | 305° |
| 2026-04-27 18:44 | 55.60786 | 49.29550 | 406 ft | 2 kts | 305° |
| 2026-04-27 18:44 | 55.60801 | 49.29512 | 405 ft | 5 kts | 304° |
| 2026-04-27 18:44 | 55.60809 | 49.29437 | 406 ft | 7 kts | 254° |
| 2026-04-27 18:44 | 55.60766 | 49.29367 | 406 ft | 9 kts | 216° |
| 2026-04-27 18:45 | 55.60699 | 49.29287 | 406 ft | 15 kts | 213° |
| 2026-04-27 18:45 | 55.60599 | 49.29157 | 406 ft | 20 kts | 228° |
| 2026-04-27 18:45 | 55.60577 | 49.28911 | 406 ft | 21 kts | 271° |
| 2026-04-27 18:45 | 55.60597 | 49.28652 | 406 ft | 22 kts | 278° |
| 2026-04-27 18:46 | 55.60670 | 49.28413 | 406 ft | 23 kts | 306° |
| 2026-04-27 18:46 | 55.60761 | 49.28181 | 402 ft | 23 kts | 304° |
| 2026-04-27 18:46 | 55.60849 | 49.27952 | 406 ft | 24 kts | 304° |
| 2026-04-27 18:46 | 55.60945 | 49.27705 | 405 ft | 25 kts | 304° |
| 2026-04-27 18:47 | 55.61050 | 49.27439 | 406 ft | 27 kts | 304° |
| 2026-04-27 18:47 | 55.61156 | 49.27163 | 404 ft | 28 kts | 304° |
| 2026-04-27 18:47 | 55.61271 | 49.26867 | 405 ft | 29 kts | 304° |
| 2026-04-27 18:47 | 55.61373 | 49.26601 | 404 ft | 23 kts | 304° |
| 2026-04-27 18:48 | 55.61460 | 49.26376 | 406 ft | 22 kts | 304° |
| 2026-04-27 18:48 | 55.61546 | 49.26155 | 404 ft | 22 kts | 305° |
| 2026-04-27 18:48 | 55.61630 | 49.25940 | 403 ft | 21 kts | 304° |
| 2026-04-27 18:48 | 55.61711 | 49.25731 | 406 ft | 20 kts | 304° |
| 2026-04-27 18:49 | 55.61790 | 49.25530 | 403 ft | 20 kts | 305° |
| 2026-04-27 18:49 | 55.61846 | 49.25370 | 403 ft | 14 kts | 291° |
| 2026-04-27 18:49 | 55.61805 | 49.25234 | 405 ft | 14 kts | 215° |
| 2026-04-27 18:49 | 55.61724 | 49.25140 | 403 ft | 10 kts | 201° |
| 2026-04-27 18:50 | 55.61673 | 49.25175 | 404 ft | 0 kts | 127° |
| 2026-04-27 18:51 | 55.61635 | 49.25269 | 401 ft | 36 kts | 124° |
| 2026-04-27 18:51 | 55.61345 | 49.26018 | 401 ft | 110 kts | 124° |
| 2026-04-27 18:51 | 55.60781 | 49.27420 | 448 ft | 166 kts | 126° |
| 2026-04-27 18:51 | 55.60087 | 49.29233 | 990 ft | 180 kts | 128° |
| 2026-04-27 18:52 | 55.59440 | 49.31028 | 2156 ft | 168 kts | 132° |
| 2026-04-27 18:52 | 55.58758 | 49.32747 | 2881 ft | 180 kts | 139° |
| 2026-04-27 18:52 | 55.57873 | 49.34582 | 3150 ft | 209 kts | 137° |
| 2026-04-27 18:53 | 55.56167 | 49.39214 | 4329 ft | 230 kts | 131° |
| 2026-04-27 18:53 | 55.55206 | 49.41565 | 4841 ft | 244 kts | 135° |
| 2026-04-27 18:53 | 55.53934 | 49.43802 | 4913 ft | 274 kts | 151° |
| 2026-04-27 18:53 | 55.52151 | 49.44943 | 5635 ft | 266 kts | 182° |
| 2026-04-27 18:54 | 55.50467 | 49.44177 | 7028 ft | 244 kts | 214° |
| 2026-04-27 18:54 | 55.49335 | 49.41995 | 7501 ft | 251 kts | 244° |
| 2026-04-27 18:54 | 55.49039 | 49.38899 | 7638 ft | 258 kts | 262° |
| 2026-04-27 18:54 | 55.48695 | 49.35896 | 7632 ft | 250 kts | 243° |
| 2026-04-27 18:55 | 55.47620 | 49.33627 | 7627 ft | 243 kts | 210° |
| 2026-04-27 18:55 | 55.45996 | 49.32749 | 7663 ft | 248 kts | 195° |
| 2026-04-27 18:55 | 55.44325 | 49.31956 | 7651 ft | 250 kts | 200° |
| 2026-04-27 18:55 | 55.42693 | 49.30897 | 7642 ft | 250 kts | 207° |
| 2026-04-27 18:56 | 55.41364 | 49.28993 | 7643 ft | 249 kts | 233° |
| 2026-04-27 18:56 | 55.40666 | 49.26206 | 7654 ft | 252 kts | 254° |
| 2026-04-27 18:56 | 55.40602 | 49.23096 | 7653 ft | 258 kts | 271° |
| 2026-04-27 18:56 | 55.40814 | 49.19961 | 7649 ft | 258 kts | 272° |
| 2026-04-27 18:57 | 55.41047 | 49.16830 | 7642 ft | 258 kts | 272° |
| 2026-04-27 18:57 | 55.41276 | 49.13702 | 7640 ft | 257 kts | 272° |
| 2026-04-27 18:57 | 55.41498 | 49.10581 | 7642 ft | 256 kts | 272° |
| 2026-04-27 18:57 | 55.41712 | 49.07476 | 7636 ft | 255 kts | 271° |
| 2026-04-27 18:58 | 55.41922 | 49.04374 | 7639 ft | 255 kts | 271° |
| 2026-04-27 18:58 | 55.42060 | 49.02331 | 7645 ft | 254 kts | 271° |
| 2026-04-27 18:58 | 55.42337 | 48.98204 | 7713 ft | 256 kts | 271° |
| 2026-04-27 18:58 | 55.42544 | 48.95052 | 8324 ft | 262 kts | 271° |
| 2026-04-27 18:59 | 55.42756 | 48.91857 | 9274 ft | 263 kts | 271° |
| 2026-04-27 18:59 | 55.42968 | 48.88621 | 10038 ft | 272 kts | 271° |
| 2026-04-27 18:59 | 55.43190 | 48.85166 | 10272 ft | 298 kts | 271° |
| 2026-04-27 18:59 | 55.43432 | 48.81396 | 10542 ft | 320 kts | 271° |
| 2026-04-27 19:00 | 55.43691 | 48.77421 | 11141 ft | 330 kts | 271° |
| 2026-04-27 19:00 | 55.43954 | 48.73431 | 11921 ft | 335 kts | 271° |
| 2026-04-27 19:00 | 55.44223 | 48.69325 | 12711 ft | 339 kts | 271° |
| 2026-04-27 19:00 | 55.44493 | 48.65162 | 13468 ft | 345 kts | 271° |
| 2026-04-27 19:01 | 55.44763 | 48.60955 | 14252 ft | 345 kts | 271° |
| 2026-04-27 19:01 | 55.45031 | 48.56755 | 15104 ft | 344 kts | 271° |
| 2026-04-27 19:01 | 55.45347 | 48.52574 | 15971 ft | 346 kts | 276° |
| 2026-04-27 19:01 | 55.45940 | 48.48455 | 16874 ft | 347 kts | 281° |
| 2026-04-27 19:02 | 55.46663 | 48.44404 | 17802 ft | 345 kts | 282° |
| 2026-04-27 19:02 | 55.47411 | 48.40402 | 18620 ft | 342 kts | 282° |
| 2026-04-27 19:02 | 55.48150 | 48.36431 | 19448 ft | 339 kts | 281° |
| 2026-04-27 19:02 | 55.48867 | 48.32500 | 20297 ft | 335 kts | 281° |
| 2026-04-27 19:03 | 55.49563 | 48.28620 | 21164 ft | 329 kts | 280° |
| 2026-04-27 19:03 | 55.50238 | 48.24795 | 22058 ft | 324 kts | 279° |
| 2026-04-27 19:03 | 55.50895 | 48.21038 | 22981 ft | 317 kts | 279° |
| 2026-04-27 19:03 | 55.51322 | 48.18571 | 23358 ft | 320 kts | 279° |
| 2026-04-27 19:04 | 55.52202 | 48.13396 | 23501 ft | 342 kts | 279° |
| 2026-04-27 19:04 | 55.52897 | 48.09281 | 23611 ft | 358 kts | 280° |
| 2026-04-27 19:04 | 55.53628 | 48.04964 | 23720 ft | 374 kts | 280° |
| 2026-04-27 19:04 | 55.54388 | 48.00490 | 23820 ft | 388 kts | 281° |
| 2026-04-27 19:05 | 55.55178 | 47.95835 | 23901 ft | 402 kts | 281° |
| 2026-04-27 19:05 | 55.55993 | 47.91032 | 24029 ft | 414 kts | 281° |
| 2026-04-27 19:05 | 55.56825 | 47.86126 | 24317 ft | 420 kts | 281° |
| 2026-04-27 19:05 | 55.57672 | 47.81116 | 24377 ft | 432 kts | 281° |
| 2026-04-27 19:06 | 55.58540 | 47.75960 | 24442 ft | 442 kts | 282° |
| 2026-04-27 19:06 | 55.59425 | 47.70682 | 24508 ft | 452 kts | 282° |
| 2026-04-27 19:06 | 55.60325 | 47.65302 | 24566 ft | 461 kts | 282° |
| 2026-04-27 19:06 | 55.61241 | 47.59808 | 24620 ft | 469 kts | 282° |
| 2026-04-27 19:07 | 55.62165 | 47.54246 | 24829 ft | 470 kts | 282° |
| 2026-04-27 19:07 | 55.63064 | 47.48853 | 25682 ft | 458 kts | 282° |
| 2026-04-27 19:07 | 55.63950 | 47.43508 | 26497 ft | 447 kts | 282° |
| 2026-04-27 19:07 | 55.64810 | 47.38290 | 27338 ft | 437 kts | 281° |
| 2026-04-27 19:08 | 55.65649 | 47.33172 | 28204 ft | 427 kts | 281° |
| 2026-04-27 19:08 | 55.66464 | 47.28182 | 29105 ft | 417 kts | 281° |
| 2026-04-27 19:08 | 55.67260 | 47.23299 | 29939 ft | 407 kts | 280° |
| 2026-04-27 19:08 | 55.68033 | 47.18544 | 30685 ft | 396 kts | 280° |
| 2026-04-27 19:09 | 55.68781 | 47.13928 | 31448 ft | 384 kts | 280° |
| 2026-04-27 19:09 | 55.69508 | 47.09447 | 32203 ft | 373 kts | 280° |
| 2026-04-27 19:09 | 55.70223 | 47.05009 | 32442 ft | 378 kts | 280° |
| 2026-04-27 19:10 | 55.71688 | 46.95829 | 32559 ft | 395 kts | 281° |
| 2026-04-27 19:10 | 55.73212 | 46.86267 | 32673 ft | 411 kts | 281° |
| 2026-04-27 19:11 | 55.74793 | 46.76336 | 33035 ft | 417 kts | 281° |
| 2026-04-27 19:11 | 55.75574 | 46.71428 | 33532 ft | 415 kts | 281° |
| 2026-04-27 19:11 | 55.76361 | 46.66445 | 33505 ft | 422 kts | 281° |
| 2026-04-27 19:12 | 55.77952 | 46.56316 | 33533 ft | 433 kts | 281° |
| 2026-04-27 19:12 | 55.79470 | 46.45821 | 33521 ft | 442 kts | 275° |
| 2026-04-27 19:13 | 55.79939 | 46.34871 | 33523 ft | 448 kts | 269° |
| 2026-04-27 19:13 | 55.80226 | 46.23701 | 33520 ft | 457 kts | 269° |
| 2026-04-27 19:14 | 55.80543 | 46.12307 | 33495 ft | 465 kts | 270° |
| 2026-04-27 19:14 | 55.80890 | 46.00759 | 33499 ft | 470 kts | 270° |
| 2026-04-27 19:15 | 55.81241 | 45.89097 | 33494 ft | 474 kts | 270° |
| 2026-04-27 19:15 | 55.81580 | 45.77441 | 33475 ft | 476 kts | 270° |
| 2026-04-27 19:16 | 55.81909 | 45.65682 | 33475 ft | 476 kts | 270° |
| 2026-04-27 19:16 | 55.82226 | 45.53920 | 33470 ft | 476 kts | 270° |
| 2026-04-27 19:17 | 55.82532 | 45.42144 | 33461 ft | 476 kts | 270° |
| 2026-04-27 19:17 | 55.82826 | 45.30403 | 33454 ft | 475 kts | 270° |
| 2026-04-27 19:18 | 55.83107 | 45.18744 | 33455 ft | 474 kts | 269° |
| 2026-04-27 19:18 | 55.83378 | 45.07038 | 33446 ft | 473 kts | 269° |
| 2026-04-27 19:19 | 55.83639 | 44.95354 | 33438 ft | 472 kts | 269° |
| 2026-04-27 19:19 | 55.83891 | 44.83681 | 33429 ft | 471 kts | 269° |
| 2026-04-27 19:20 | 55.84136 | 44.72013 | 33422 ft | 471 kts | 269° |
| 2026-04-27 19:20 | 55.84370 | 44.60379 | 33410 ft | 470 kts | 269° |
| 2026-04-27 19:21 | 55.84591 | 44.48817 | 33408 ft | 470 kts | 269° |
| 2026-04-27 19:21 | 55.84801 | 44.37185 | 33401 ft | 470 kts | 269° |
| 2026-04-27 19:22 | 55.85002 | 44.25565 | 33391 ft | 469 kts | 269° |
| 2026-04-27 19:22 | 55.85192 | 44.13983 | 33387 ft | 467 kts | 269° |
| 2026-04-27 19:23 | 55.85369 | 44.02492 | 33378 ft | 466 kts | 269° |
| 2026-04-27 19:23 | 55.85508 | 43.92821 | 33371 ft | 466 kts | 269° |
| 2026-04-27 19:24 | 55.85662 | 43.81373 | 33370 ft | 465 kts | 268° |
| 2026-04-27 19:24 | 55.85809 | 43.69833 | 33369 ft | 465 kts | 268° |
| 2026-04-27 19:25 | 55.85946 | 43.58326 | 33359 ft | 465 kts | 269° |
| 2026-04-27 19:25 | 55.86072 | 43.46816 | 33358 ft | 464 kts | 269° |
| 2026-04-27 19:26 | 55.86188 | 43.35316 | 33354 ft | 464 kts | 269° |
| 2026-04-27 19:26 | 55.86299 | 43.23817 | 33346 ft | 464 kts | 268° |
| 2026-04-27 19:27 | 55.86399 | 43.12401 | 33332 ft | 464 kts | 268° |
| 2026-04-27 19:27 | 55.86492 | 43.00923 | 33329 ft | 464 kts | 268° |
| 2026-04-27 19:28 | 55.86568 | 42.89446 | 33336 ft | 464 kts | 268° |
| 2026-04-27 19:28 | 55.86636 | 42.77966 | 33320 ft | 464 kts | 269° |
| 2026-04-27 19:29 | 55.86692 | 42.66473 | 33319 ft | 463 kts | 268° |
| 2026-04-27 19:29 | 55.86737 | 42.55046 | 33322 ft | 463 kts | 268° |
| 2026-04-27 19:30 | 55.86772 | 42.43582 | 33309 ft | 463 kts | 268° |
| 2026-04-27 19:30 | 55.86801 | 42.32126 | 33306 ft | 461 kts | 268° |
| 2026-04-27 19:31 | 55.86817 | 42.20794 | 33294 ft | 453 kts | 268° |
| 2026-04-27 19:31 | 55.86820 | 42.09661 | 33303 ft | 448 kts | 268° |
| 2026-04-27 19:32 | 55.86815 | 41.98589 | 33304 ft | 446 kts | 268° |
| 2026-04-27 19:32 | 55.86799 | 41.87541 | 33295 ft | 446 kts | 268° |
| 2026-04-27 19:33 | 55.86766 | 41.76478 | 33295 ft | 447 kts | 266° |
| 2026-04-27 19:33 | 55.86482 | 41.65459 | 33296 ft | 449 kts | 265° |
| 2026-04-27 19:34 | 55.86095 | 41.54362 | 33280 ft | 448 kts | 265° |
| 2026-04-27 19:34 | 55.85724 | 41.43332 | 33283 ft | 445 kts | 265° |
| 2026-04-27 19:35 | 55.85369 | 41.32345 | 33287 ft | 444 kts | 265° |
| 2026-04-27 19:35 | 55.85011 | 41.21370 | 33283 ft | 443 kts | 265° |
| 2026-04-27 19:36 | 55.84646 | 41.10461 | 33278 ft | 441 kts | 265° |
| 2026-04-27 19:36 | 55.84274 | 40.99671 | 33286 ft | 439 kts | 265° |
| 2026-04-27 19:37 | 55.83890 | 40.88859 | 33285 ft | 436 kts | 265° |
| 2026-04-27 19:37 | 55.83500 | 40.78098 | 33286 ft | 435 kts | 265° |
| 2026-04-27 19:38 | 55.83108 | 40.67477 | 33275 ft | 426 kts | 265° |
| 2026-04-27 19:38 | 55.82907 | 40.62180 | 32696 ft | 432 kts | 265° |
| 2026-04-27 19:38 | 55.82701 | 40.56899 | 32335 ft | 424 kts | 265° |
| 2026-04-27 19:38 | 55.82490 | 40.51673 | 31855 ft | 421 kts | 265° |
| 2026-04-27 19:39 | 55.82279 | 40.46498 | 31410 ft | 417 kts | 265° |
| 2026-04-27 19:39 | 55.82068 | 40.41374 | 30957 ft | 414 kts | 265° |
| 2026-04-27 19:39 | 55.81857 | 40.36289 | 30517 ft | 411 kts | 265° |
| 2026-04-27 19:39 | 55.81646 | 40.31253 | 30073 ft | 407 kts | 265° |
| 2026-04-27 19:40 | 55.81435 | 40.26248 | 29619 ft | 405 kts | 266° |
| 2026-04-27 19:40 | 55.81223 | 40.21257 | 29123 ft | 402 kts | 266° |
| 2026-04-27 19:40 | 55.81014 | 40.16386 | 28600 ft | 399 kts | 266° |
| 2026-04-27 19:40 | 55.80802 | 40.11500 | 28134 ft | 394 kts | 266° |
| 2026-04-27 19:41 | 55.80592 | 40.06676 | 27666 ft | 389 kts | 266° |
| 2026-04-27 19:41 | 55.80382 | 40.01919 | 27214 ft | 384 kts | 266° |
| 2026-04-27 19:41 | 55.80173 | 39.97210 | 26767 ft | 379 kts | 266° |
| 2026-04-27 19:41 | 55.79965 | 39.92566 | 26313 ft | 375 kts | 266° |
| 2026-04-27 19:42 | 55.79758 | 39.87969 | 25879 ft | 371 kts | 266° |
| 2026-04-27 19:42 | 55.79550 | 39.83421 | 25437 ft | 367 kts | 266° |
| 2026-04-27 19:42 | 55.79331 | 39.78941 | 25132 ft | 360 kts | 265° |
| 2026-04-27 19:42 | 55.79055 | 39.74578 | 24928 ft | 351 kts | 264° |
| 2026-04-27 19:43 | 55.78761 | 39.70319 | 24708 ft | 343 kts | 264° |
| 2026-04-27 19:43 | 55.78468 | 39.66115 | 24532 ft | 345 kts | 264° |
| 2026-04-27 19:43 | 55.78174 | 39.61842 | 24336 ft | 351 kts | 265° |
| 2026-04-27 19:43 | 55.77880 | 39.57515 | 24129 ft | 353 kts | 265° |
| 2026-04-27 19:44 | 55.77588 | 39.53208 | 23910 ft | 349 kts | 265° |
| 2026-04-27 19:44 | 55.77299 | 39.48943 | 23707 ft | 346 kts | 265° |
| 2026-04-27 19:44 | 55.77015 | 39.44777 | 23504 ft | 343 kts | 265° |
| 2026-04-27 19:44 | 55.76728 | 39.40585 | 23306 ft | 341 kts | 265° |
| 2026-04-27 19:45 | 55.76440 | 39.36439 | 23214 ft | 337 kts | 265° |
| 2026-04-27 19:45 | 55.76150 | 39.32276 | 23137 ft | 342 kts | 265° |
| 2026-04-27 19:45 | 55.75854 | 39.28057 | 23041 ft | 345 kts | 265° |
| 2026-04-27 19:45 | 55.75555 | 39.23828 | 22947 ft | 344 kts | 265° |
| 2026-04-27 19:46 | 55.75257 | 39.19627 | 22860 ft | 342 kts | 266° |
| 2026-04-27 19:46 | 55.74959 | 39.15443 | 22746 ft | 341 kts | 266° |
| 2026-04-27 19:46 | 55.74660 | 39.11265 | 22651 ft | 341 kts | 266° |
| 2026-04-27 19:46 | 55.74362 | 39.07093 | 22564 ft | 340 kts | 266° |
| 2026-04-27 19:47 | 55.74062 | 39.02927 | 22474 ft | 340 kts | 266° |
| 2026-04-27 19:47 | 55.73761 | 38.98771 | 22385 ft | 340 kts | 266° |
| 2026-04-27 19:47 | 55.73457 | 38.94595 | 22289 ft | 340 kts | 267° |
| 2026-04-27 19:47 | 55.73378 | 38.90404 | 21975 ft | 342 kts | 277° |
| 2026-04-27 19:48 | 55.73599 | 38.86194 | 21651 ft | 341 kts | 279° |
| 2026-04-27 19:48 | 55.73851 | 38.82049 | 21308 ft | 335 kts | 279° |
| 2026-04-27 19:48 | 55.74090 | 38.77966 | 20964 ft | 330 kts | 279° |
| 2026-04-27 19:48 | 55.74309 | 38.73940 | 20630 ft | 326 kts | 279° |
| 2026-04-27 19:49 | 55.74511 | 38.69993 | 20299 ft | 323 kts | 279° |
| 2026-04-27 19:49 | 55.74706 | 38.66035 | 19992 ft | 321 kts | 279° |
| 2026-04-27 19:49 | 55.74895 | 38.62097 | 19668 ft | 319 kts | 279° |
| 2026-04-27 19:49 | 55.75177 | 38.58221 | 19377 ft | 314 kts | 289° |
| 2026-04-27 19:50 | 55.76008 | 38.54703 | 19334 ft | 309 kts | 303° |
| 2026-04-27 19:50 | 55.77220 | 38.51539 | 19331 ft | 312 kts | 307° |
| 2026-04-27 19:50 | 55.78501 | 38.48422 | 19327 ft | 313 kts | 308° |
| 2026-04-27 19:50 | 55.79775 | 38.45301 | 19304 ft | 309 kts | 307° |
| 2026-04-27 19:51 | 55.81007 | 38.42228 | 19303 ft | 301 kts | 307° |
| 2026-04-27 19:51 | 55.82195 | 38.39236 | 19302 ft | 292 kts | 307° |
| 2026-04-27 19:51 | 55.83367 | 38.36337 | 19135 ft | 288 kts | 309° |
| 2026-04-27 19:51 | 55.84588 | 38.33510 | 18856 ft | 287 kts | 309° |
| 2026-04-27 19:52 | 55.85812 | 38.30722 | 18582 ft | 284 kts | 309° |
| 2026-04-27 19:52 | 55.86616 | 38.28892 | 18398 ft | 283 kts | 309° |
| 2026-04-27 19:52 | 55.88229 | 38.25207 | 18049 ft | 281 kts | 309° |
| 2026-04-27 19:52 | 55.89425 | 38.22460 | 17780 ft | 280 kts | 309° |
| 2026-04-27 19:53 | 55.91795 | 38.16990 | 17212 ft | 278 kts | 309° |
| 2026-04-27 19:53 | 55.92958 | 38.14298 | 16943 ft | 276 kts | 309° |
| 2026-04-27 19:53 | 55.94128 | 38.11587 | 16669 ft | 275 kts | 309° |
| 2026-04-27 19:54 | 55.95293 | 38.08884 | 16412 ft | 274 kts | 309° |
| 2026-04-27 19:54 | 55.96452 | 38.06192 | 16153 ft | 273 kts | 309° |
| 2026-04-27 19:54 | 55.97614 | 38.03489 | 15845 ft | 276 kts | 309° |
| 2026-04-27 19:54 | 55.98796 | 38.00736 | 15395 ft | 281 kts | 309° |
| 2026-04-27 19:55 | 55.99969 | 37.97929 | 14996 ft | 282 kts | 304° |
| 2026-04-27 19:55 | 56.00728 | 37.94698 | 14611 ft | 285 kts | 287° |
| 2026-04-27 19:55 | 56.01113 | 37.91208 | 14233 ft | 285 kts | 284° |
| 2026-04-27 19:55 | 56.01460 | 37.87713 | 13861 ft | 285 kts | 284° |
| 2026-04-27 19:56 | 56.01801 | 37.84338 | 13498 ft | 284 kts | 284° |
| 2026-04-27 19:56 | 56.02197 | 37.80790 | 13099 ft | 281 kts | 290° |
| 2026-04-27 19:56 | 56.03114 | 37.77768 | 12689 ft | 276 kts | 310° |
| 2026-04-27 19:56 | 56.04526 | 37.75470 | 12282 ft | 275 kts | 327° |
| 2026-04-27 19:57 | 56.06236 | 37.73920 | 11783 ft | 277 kts | 333° |
| 2026-04-27 19:57 | 56.08023 | 37.72471 | 11058 ft | 287 kts | 334° |
| 2026-04-27 19:57 | 56.09833 | 37.71000 | 10726 ft | 282 kts | 333° |
| 2026-04-27 19:57 | 56.11560 | 37.69583 | 10788 ft | 265 kts | 333° |
| 2026-04-27 19:58 | 56.13168 | 37.68232 | 10772 ft | 253 kts | 331° |
| 2026-04-27 19:58 | 56.14722 | 37.66674 | 10263 ft | 260 kts | 328° |
| 2026-04-27 19:58 | 56.16297 | 37.64977 | 9664 ft | 268 kts | 327° |
| 2026-04-27 19:58 | 56.17910 | 37.63226 | 9050 ft | 274 kts | 328° |
| 2026-04-27 19:59 | 56.19560 | 37.61437 | 8412 ft | 279 kts | 327° |
| 2026-04-27 19:59 | 56.20922 | 37.59015 | 8091 ft | 275 kts | 303° |
| 2026-04-27 19:59 | 56.21481 | 37.55780 | 7986 ft | 273 kts | 278° |
| 2026-04-27 19:59 | 56.21126 | 37.52449 | 7956 ft | 275 kts | 252° |
| 2026-04-27 20:00 | 56.19937 | 37.49774 | 7965 ft | 278 kts | 224° |
| 2026-04-27 20:00 | 56.18243 | 37.48124 | 7971 ft | 270 kts | 218° |
| 2026-04-27 20:00 | 56.16975 | 37.45980 | 7976 ft | 238 kts | 249° |
| 2026-04-27 20:00 | 56.16554 | 37.43316 | 7975 ft | 217 kts | 280° |
| 2026-04-27 20:01 | 56.17005 | 37.40872 | 7982 ft | 205 kts | 311° |
| 2026-04-27 20:01 | 56.18108 | 37.39323 | 7992 ft | 203 kts | 332° |
| 2026-04-27 20:01 | 56.19479 | 37.38660 | 7976 ft | 210 kts | 358° |
| 2026-04-27 20:01 | 56.20881 | 37.39522 | 7982 ft | 220 kts | 26° |
| 2026-04-27 20:02 | 56.22083 | 37.41192 | 7950 ft | 212 kts | 25° |
| 2026-04-27 20:02 | 56.23305 | 37.42542 | 7960 ft | 205 kts | 22° |
| 2026-04-27 20:02 | 56.24524 | 37.43817 | 7967 ft | 199 kts | 17° |
| 2026-04-27 20:02 | 56.25778 | 37.44850 | 7958 ft | 197 kts | 15° |
| 2026-04-27 20:03 | 56.27045 | 37.45922 | 7656 ft | 206 kts | 10° |